Time;durP1;ratioP1;P1;durP2;ratioP2;P2;SDS_P1;SDS_P2;PMS_P1;PMS_P2;Temp;Humidity;BMP_temperature;BMP_pressure;BME280_temperature;BME280_humidity;BME280_pressure;Samples;Min_cycle;Max_cycle;Signal;HPM_P1;HPM_P2
2021/03/19 00:01:16;;;;;;;11.93;8.93;;;5.70;76.50;;;;;;5051068;28;20041;-62
2021/03/19 00:03:42;;;;;;;10.18;7.75;;;5.70;76.60;;;;;;5056786;28;20472;-62
2021/03/19 00:06:07;;;;;;;11.25;7.10;;;5.70;76.60;;;;;;5057921;28;20051;-62
2021/03/19 00:08:33;;;;;;;10.15;7.60;;;5.70;76.50;;;;;;5057476;28;20460;-62
2021/03/19 00:10:59;;;;;;;9.90;7.07;;;5.70;76.60;;;;;;5057480;28;20032;-62
2021/03/19 00:13:25;;;;;;;12.57;7.60;;;5.70;76.60;;;;;;5057493;28;20031;-62
2021/03/19 00:15:51;;;;;;;10.27;7.47;;;5.70;76.70;;;;;;5043788;28;20117;-62
2021/03/19 00:18:16;;;;;;;9.98;7.05;;;5.70;76.60;;;;;;5038348;28;20037;-62
2021/03/19 00:20:44;;;;;;;8.98;7.15;;;5.60;77.00;;;;;;5050287;28;20570;-62
2021/03/19 00:23:11;;;;;;;12.35;7.55;;;5.70;77.00;;;;;;5048125;28;20025;-62
2021/03/19 00:25:37;;;;;;;9.65;6.93;;;5.60;77.60;;;;;;5055043;28;20056;-62
2021/03/19 00:28:04;;;;;;;10.23;7.03;;;5.60;77.10;;;;;;5039328;28;20025;-62
2021/03/19 00:30:31;;;;;;;9.52;7.38;;;5.60;77.10;;;;;;5051338;28;20061;-62
2021/03/19 00:32:57;;;;;;;11.77;7.53;;;5.60;77.20;;;;;;5046462;28;20021;-61
2021/03/19 00:35:23;;;;;;;9.52;6.85;;;5.60;77.30;;;;;;5057090;28;20412;-60
2021/03/19 00:37:48;;;;;;;9.50;7.18;;;5.60;77.50;;;;;;5056768;28;20033;-62
2021/03/19 00:40:15;;;;;;;9.00;6.50;;;5.60;77.60;;;;;;5040511;28;20037;-62
2021/03/19 00:42:43;;;;;;;8.93;6.70;;;5.60;77.50;;;;;;5036918;28;20089;-62
2021/03/19 00:45:11;;;;;;;7.95;6.93;;;5.70;78.30;;;;;;5036980;28;20036;-62
2021/03/19 00:47:37;;;;;;;9.75;6.93;;;5.70;77.60;;;;;;5036364;28;20116;-62
2021/03/19 00:50:09;;;;;;;8.63;6.38;;;5.70;77.80;;;;;;5036711;28;20113;-62
2021/03/19 00:52:36;;;;;;;8.77;6.75;;;5.70;77.70;;;;;;5036670;28;20508;-62
2021/03/19 00:55:08;;;;;;;9.20;6.93;;;5.70;77.60;;;;;;5045293;28;20025;-62
2021/03/19 00:57:34;;;;;;;10.88;7.38;;;5.70;77.50;;;;;;5056467;28;20033;-62
2021/03/19 01:00:00;;;;;;;8.55;7.10;;;5.70;77.70;;;;;;5044244;28;20067;-62
2021/03/19 01:02:25;;;;;;;11.90;6.55;;;5.70;77.80;;;;;;5054512;28;20075;-62
2021/03/19 01:04:55;;;;;;;7.65;6.43;;;5.60;77.80;;;;;;5055925;28;20477;-62
2021/03/19 01:07:21;;;;;;;9.20;6.45;;;5.60;77.70;;;;;;5056291;28;20028;-62
2021/03/19 01:09:47;;;;;;;9.15;6.22;;;5.60;78.00;;;;;;5056477;28;20764;-62
2021/03/19 01:12:13;;;;;;;7.80;6.05;;;5.60;78.00;;;;;;5056265;28;20017;-62
2021/03/19 01:14:39;;;;;;;8.30;5.90;;;5.60;78.00;;;;;;5051003;28;20076;-62
2021/03/19 01:17:05;;;;;;;8.52;6.13;;;5.60;78.10;;;;;;5036609;28;20064;-62
2021/03/19 01:19:30;;;;;;;8.98;6.15;;;5.70;78.10;;;;;;5036171;28;20355;-62
2021/03/19 01:21:56;;;;;;;7.90;5.88;;;5.60;78.10;;;;;;5036166;28;20041;-62
2021/03/19 01:24:22;;;;;;;9.02;6.47;;;5.60;78.10;;;;;;5041223;28;20103;-62
2021/03/19 01:26:47;;;;;;;9.15;6.63;;;5.60;78.00;;;;;;5055816;28;20024;-62
2021/03/19 01:29:13;;;;;;;9.05;6.90;;;5.60;78.10;;;;;;5055921;28;20039;-62
2021/03/19 01:31:39;;;;;;;10.50;7.07;;;5.60;78.20;;;;;;5055857;28;20488;-62
2021/03/19 01:34:04;;;;;;;9.35;7.18;;;5.70;78.40;;;;;;5055830;28;20025;-62
2021/03/19 01:36:30;;;;;;;9.85;6.22;;;5.60;78.40;;;;;;5054790;28;20028;-62
2021/03/19 01:38:56;;;;;;;9.07;6.28;;;5.70;78.30;;;;;;5052124;28;20018;-62
2021/03/19 01:41:21;;;;;;;7.60;6.13;;;5.70;78.40;;;;;;5034513;28;20037;-62
2021/03/19 01:44:05;;;;;;;8.07;6.47;;;5.70;78.20;;;;;;5037374;28;20036;-62
2021/03/19 01:47:08;;;;;;;8.70;6.35;;;5.70;78.30;;;;;;5036047;28;20021;-62
2021/03/19 01:50:11;;;;;;;8.50;6.40;;;5.70;78.30;;;;;;5035757;28;20025;-62
2021/03/19 01:53:14;;;;;;;8.73;6.22;;;5.70;78.30;;;;;;5035735;28;20457;-62
2021/03/19 01:56:17;;;;;;;8.32;5.57;;;5.70;78.10;;;;;;5044377;28;20047;-61
2021/03/19 01:59:20;;;;;;;8.10;5.45;;;5.70;78.20;;;;;;5054735;28;20029;-62
2021/03/19 02:02:23;;;;;;;7.82;5.57;;;5.70;78.10;;;;;;5052686;28;20531;-62
2021/03/19 02:05:26;;;;;;;8.65;6.28;;;5.70;78.20;;;;;;5049446;28;20025;-62
2021/03/19 02:08:28;;;;;;;9.35;6.20;;;5.70;78.20;;;;;;5055123;28;20079;-62
2021/03/19 02:11:51;;;;;;;8.13;5.68;;;5.70;78.30;;;;;;5035169;28;20502;-62
2021/03/19 02:14:54;;;;;;;9.82;5.57;;;5.70;78.10;;;;;;4993837;28;20026;-62
2021/03/19 02:17:57;;;;;;;7.03;5.40;;;5.70;78.40;;;;;;4993826;28;20038;-62
2021/03/19 02:21:00;;;;;;;7.97;5.50;;;5.60;78.20;;;;;;5049041;28;20041;-62
2021/03/19 02:24:03;;;;;;;8.05;5.95;;;5.60;78.30;;;;;;5054876;28;20371;-62
2021/03/19 02:27:06;;;;;;;8.45;5.68;;;5.60;78.40;;;;;;5054667;28;20031;-62
2021/03/19 02:30:09;;;;;;;7.05;5.28;;;5.60;78.40;;;;;;5054828;28;20029;-62
2021/03/19 02:32:34;;;;;;;7.95;5.25;;;5.50;78.40;;;;;;5049767;28;20025;-62
2021/03/19 02:35:14;;;;;;;7.82;5.50;;;5.60;78.70;;;;;;5044254;28;20104;-62
2021/03/19 02:37:40;;;;;;;7.55;5.43;;;5.50;78.70;;;;;;5050291;28;20405;-62
2021/03/19 02:40:15;;;;;;;9.02;5.90;;;5.60;78.80;;;;;;5037460;28;20036;-62
2021/03/19 02:42:41;;;;;;;7.60;6.05;;;5.60;78.80;;;;;;5053086;28;20088;-62
2021/03/19 02:45:11;;;;;;;7.95;5.32;;;5.60;79.30;;;;;;5040497;28;20110;-62
2021/03/19 02:47:37;;;;;;;8.80;6.70;;;5.60;79.10;;;;;;5035203;28;20124;-62
2021/03/19 02:50:04;;;;;;;8.93;6.25;;;5.60;78.90;;;;;;5034636;28;20398;-62
2021/03/19 02:52:35;;;;;;;8.10;6.10;;;5.60;78.80;;;;;;5034593;28;20064;-62
2021/03/19 02:55:01;;;;;;;8.18;5.53;;;5.60;79.00;;;;;;5034585;28;20021;-62
2021/03/19 02:57:27;;;;;;;9.13;5.70;;;5.60;78.80;;;;;;5034369;28;20025;-62
2021/03/19 02:59:53;;;;;;;7.13;5.20;;;5.60;78.80;;;;;;5034615;28;20104;-62
2021/03/19 03:02:18;;;;;;;8.65;6.07;;;5.50;78.50;;;;;;5054029;28;20057;-62
2021/03/19 03:04:44;;;;;;;6.50;5.43;;;5.60;78.90;;;;;;5054311;28;20043;-62
2021/03/19 03:07:25;;;;;;;7.32;6.25;;;5.50;79.00;;;;;;5054325;28;20021;-62
2021/03/19 03:09:51;;;;;;;7.10;5.95;;;5.50;79.00;;;;;;5049280;28;20029;-62
2021/03/19 03:12:18;;;;;;;8.30;5.88;;;5.50;79.00;;;;;;5053662;28;20036;-62
2021/03/19 03:14:44;;;;;;;8.93;5.78;;;5.50;79.20;;;;;;5043748;28;20053;-62
2021/03/19 03:17:10;;;;;;;8.68;5.50;;;5.50;79.20;;;;;;5033962;28;20532;-62
2021/03/19 03:19:36;;;;;;;8.05;6.13;;;5.50;79.30;;;;;;5033869;28;20025;-62
2021/03/19 03:22:03;;;;;;;8.80;6.15;;;5.50;79.20;;;;;;5049979;28;20025;-62
2021/03/19 03:24:29;;;;;;;7.72;6.10;;;5.50;79.20;;;;;;5033832;28;20035;-62
2021/03/19 03:26:55;;;;;;;8.65;6.13;;;5.60;79.20;;;;;;5033725;28;20492;-62
2021/03/19 03:29:23;;;;;;;7.53;5.60;;;5.60;79.20;;;;;;5033794;28;20031;-62
2021/03/19 03:31:49;;;;;;;8.30;5.55;;;5.50;79.10;;;;;;5033628;28;20036;-62
2021/03/19 03:34:15;;;;;;;8.90;6.15;;;5.50;79.20;;;;;;5033924;28;20029;-62
2021/03/19 03:36:42;;;;;;;8.15;6.20;;;5.50;79.20;;;;;;5033944;28;20021;-62
2021/03/19 03:39:12;;;;;;;7.70;6.15;;;5.50;79.40;;;;;;5047282;28;20471;-62
2021/03/19 03:41:38;;;;;;;8.35;6.68;;;5.50;79.30;;;;;;5053597;28;20040;-62
2021/03/19 03:44:05;;;;;;;7.88;6.13;;;5.40;79.30;;;;;;5049141;28;20025;-62
2021/03/19 03:46:32;;;;;;;8.90;6.50;;;5.40;79.30;;;;;;5033616;28;20533;-62
2021/03/19 03:48:59;;;;;;;7.85;6.18;;;5.40;79.50;;;;;;5033746;28;20030;-62
2021/03/19 03:51:28;;;;;;;7.57;6.15;;;5.40;79.50;;;;;;5033842;28;20021;-62
2021/03/19 03:53:57;;;;;;;8.65;6.75;;;5.40;79.60;;;;;;5033788;28;20021;-62
2021/03/19 03:56:25;;;;;;;7.53;6.15;;;5.40;79.50;;;;;;5033706;28;20026;-62
2021/03/19 03:58:50;;;;;;;8.00;6.10;;;5.40;79.60;;;;;;5038322;28;20422;-62
2021/03/19 04:01:16;;;;;;;6.85;5.93;;;5.40;79.60;;;;;;5052005;28;20049;-62
2021/03/19 04:03:42;;;;;;;9.15;7.10;;;5.40;79.70;;;;;;5052835;28;20036;-62
2021/03/19 04:06:08;;;;;;;8.77;6.72;;;5.40;79.80;;;;;;5053288;28;20108;-62
2021/03/19 04:08:34;;;;;;;10.63;6.70;;;5.30;79.80;;;;;;5053433;28;20075;-62
2021/03/19 04:11:03;;;;;;;9.13;6.45;;;5.40;79.90;;;;;;5048130;28;20029;-62
2021/03/19 04:13:30;;;;;;;10.45;6.57;;;5.30;79.90;;;;;;5038564;28;20025;-62
2021/03/19 04:15:57;;;;;;;7.32;6.25;;;5.30;79.90;;;;;;5033512;28;20018;-62
2021/03/19 04:18:24;;;;;;;7.97;6.28;;;5.30;80.00;;;;;;5051965;28;20060;-62
2021/03/19 04:20:53;;;;;;;8.00;6.80;;;5.30;80.10;;;;;;5053264;28;20025;-62
2021/03/19 04:23:19;;;;;;;9.30;7.20;;;5.30;80.00;;;;;;5053006;28;20037;-62
2021/03/19 04:25:45;;;;;;;9.05;6.63;;;5.40;80.20;;;;;;5053129;28;20028;-62
2021/03/19 04:28:15;;;;;;;7.82;6.60;;;5.40;80.20;;;;;;5053104;28;20021;-62
2021/03/19 04:30:42;;;;;;;8.98;6.53;;;5.40;80.20;;;;;;5052443;28;20025;-62
2021/03/19 04:33:13;;;;;;;9.55;6.63;;;5.40;80.10;;;;;;5053276;28;20033;-62
2021/03/19 04:35:39;;;;;;;7.65;5.97;;;5.40;80.20;;;;;;5053413;28;20070;-62
2021/03/19 04:38:12;;;;;;;9.13;6.70;;;5.40;80.20;;;;;;5053491;28;20029;-62
2021/03/19 04:40:41;;;;;;;11.38;6.65;;;5.40;80.40;;;;;;5033320;28;20482;-62
2021/03/19 04:43:07;;;;;;;8.80;6.47;;;5.40;80.30;;;;;;5034615;28;20091;-62
2021/03/19 04:45:37;;;;;;;10.02;7.03;;;5.40;80.30;;;;;;5054584;28;20025;-62
2021/03/19 04:48:03;;;;;;;8.10;6.68;;;5.50;80.40;;;;;;5051291;28;20060;-62
2021/03/19 04:50:28;;;;;;;8.68;6.60;;;5.50;80.40;;;;;;5053741;28;20024;-62
2021/03/19 04:52:54;;;;;;;7.93;6.78;;;5.50;80.40;;;;;;5049781;28;20014;-62
2021/03/19 04:55:20;;;;;;;9.88;6.97;;;5.60;80.50;;;;;;5036299;28;20064;-62
2021/03/19 04:57:46;;;;;;;9.82;6.57;;;5.60;80.40;;;;;;5049618;28;20083;-62
2021/03/19 05:00:13;;;;;;;8.95;6.82;;;5.60;80.30;;;;;;5040771;28;20021;-62
2021/03/19 05:02:44;;;;;;;9.05;6.50;;;5.60;80.20;;;;;;5043071;28;20060;-62
2021/03/19 05:05:31;;;;;;;9.48;6.97;;;5.60;80.10;;;;;;5055695;28;20025;-62
2021/03/19 05:07:59;;;;;;;10.40;7.15;;;5.60;79.90;;;;;;5055026;28;20123;-62
2021/03/19 05:10:27;;;;;;;10.65;6.85;;;5.60;80.20;;;;;;5055776;28;20025;-62
2021/03/19 05:12:54;;;;;;;9.52;6.55;;;5.60;80.10;;;;;;5056123;28;20496;-62
2021/03/19 05:15:24;;;;;;;9.30;6.95;;;5.60;80.00;;;;;;5040485;28;20044;-62
2021/03/19 05:17:49;;;;;;;9.60;7.00;;;5.60;80.20;;;;;;5051759;28;20025;-62
2021/03/19 05:20:16;;;;;;;8.57;7.10;;;5.60;80.20;;;;;;5055351;28;20033;-62
2021/03/19 05:22:42;;;;;;;9.35;7.53;;;5.70;80.50;;;;;;5056013;28;20032;-62
2021/03/19 05:25:13;;;;;;;11.45;8.02;;;5.70;80.20;;;;;;5056112;28;20027;-62
2021/03/19 05:27:39;;;;;;;10.32;7.78;;;5.70;80.30;;;;;;5056117;28;20025;-62
2021/03/19 05:30:07;;;;;;;10.30;7.60;;;5.70;80.30;;;;;;5054740;28;20357;-61
2021/03/19 05:32:33;;;;;;;10.30;7.47;;;5.80;80.30;;;;;;5055700;28;20029;-62
2021/03/19 05:35:01;;;;;;;9.50;6.95;;;5.80;80.10;;;;;;5055915;28;20107;-62
2021/03/19 05:37:27;;;;;;;11.35;7.38;;;5.80;79.90;;;;;;5055816;28;20435;-62
2021/03/19 05:39:53;;;;;;;9.60;7.20;;;5.80;80.10;;;;;;5041584;28;20029;-62
2021/03/19 05:42:27;;;;;;;8.80;7.40;;;5.90;79.80;;;;;;5036275;28;20473;-62
2021/03/19 05:45:20;;;;;;;8.50;6.72;;;5.90;79.90;;;;;;5035845;28;20030;-62
2021/03/19 05:47:46;;;;;;;8.57;6.85;;;5.90;79.80;;;;;;5035711;28;20503;-62
2021/03/19 05:50:29;;;;;;;10.80;6.93;;;5.90;79.80;;;;;;5035692;28;20029;-62
2021/03/19 05:52:56;;;;;;;8.15;6.63;;;5.90;79.70;;;;;;5035716;28;20396;-62
2021/03/19 05:55:25;;;;;;;9.02;6.95;;;6.00;79.90;;;;;;5034328;28;20027;-62
2021/03/19 05:57:57;;;;;;;10.50;7.28;;;6.00;79.90;;;;;;5039886;28;20436;-62
2021/03/19 06:00:25;;;;;;;10.63;7.47;;;6.00;79.90;;;;;;5054519;28;20051;-62
2021/03/19 06:02:51;;;;;;;9.77;7.47;;;6.10;80.00;;;;;;5055656;28;20032;-62
2021/03/19 06:05:19;;;;;;;10.48;7.40;;;6.10;79.80;;;;;;5055251;28;20388;-62
2021/03/19 06:07:48;;;;;;;9.82;7.10;;;6.20;79.80;;;;;;5054991;28;20056;-62
2021/03/19 06:10:36;;;;;;;13.93;8.00;;;6.20;79.70;;;;;;5055523;28;20021;-62
2021/03/19 06:13:04;;;;;;;9.10;6.78;;;6.20;79.40;;;;;;5054282;28;20017;-62
2021/03/19 06:15:40;;;;;;;8.98;7.60;;;6.20;79.20;;;;;;5055017;28;20148;-62
2021/03/19 06:18:19;;;;;;;9.95;7.43;;;6.20;79.30;;;;;;5038778;28;20031;-62
2021/03/19 06:21:06;;;;;;;8.70;6.70;;;6.30;79.70;;;;;;5035006;28;20072;-62
2021/03/19 06:23:33;;;;;;;8.52;6.78;;;6.30;79.60;;;;;;5035068;28;20044;-62
2021/03/19 06:26:20;;;;;;;9.88;6.85;;;6.40;79.40;;;;;;5035223;28;20036;-62
2021/03/19 06:28:50;;;;;;;10.48;7.28;;;6.40;79.40;;;;;;5045736;28;20029;-62
2021/03/19 06:31:30;;;;;;;11.45;7.43;;;6.50;79.10;;;;;;5046021;28;20026;-62
2021/03/19 06:34:09;;;;;;;9.02;7.15;;;6.50;79.10;;;;;;5054168;28;20036;-64
2021/03/19 06:37:00;;;;;;;9.45;7.07;;;6.50;79.20;;;;;;5040365;28;20021;-62
2021/03/19 06:39:45;;;;;;;8.45;6.80;;;6.60;79.20;;;;;;5037037;28;20090;-62
2021/03/19 06:42:29;;;;;;;8.43;6.78;;;6.60;79.10;;;;;;5043668;28;20084;-62
2021/03/19 06:45:14;;;;;;;8.77;6.55;;;6.70;79.20;;;;;;5049527;28;20080;-62
2021/03/19 06:47:46;;;;;;;8.02;6.68;;;6.70;78.90;;;;;;5039829;28;20527;-62
2021/03/19 06:50:34;;;;;;;9.20;7.18;;;6.70;79.00;;;;;;5048775;28;20022;-62
2021/03/19 06:53:18;;;;;;;7.57;6.30;;;6.80;79.00;;;;;;5045354;28;20021;-62
2021/03/19 06:55:47;;;;;;;8.40;6.55;;;6.80;79.00;;;;;;5038640;28;20018;-62
2021/03/19 06:58:13;;;;;;;7.65;6.65;;;6.90;79.00;;;;;;5042681;28;20104;-62
2021/03/19 07:00:47;;;;;;;8.27;6.45;;;6.90;78.90;;;;;;5041413;28;20045;-62
2021/03/19 07:03:28;;;;;;;8.85;6.47;;;7.00;78.70;;;;;;5041360;28;20491;-62
2021/03/19 07:06:26;;;;;;;7.95;6.45;;;7.00;78.20;;;;;;5036689;28;20132;-62
2021/03/19 07:09:01;;;;;;;8.32;6.47;;;7.00;78.10;;;;;;5019603;28;20129;-62
2021/03/19 07:11:40;;;;;;;7.72;6.45;;;7.00;78.00;;;;;;5038131;28;20112;-62
2021/03/19 07:14:30;;;;;;;10.07;7.05;;;7.10;78.00;;;;;;5035097;28;20034;-62
2021/03/19 07:17:25;;;;;;;8.95;6.95;;;7.10;78.00;;;;;;5045054;28;20028;-61
2021/03/19 07:20:13;;;;;;;7.25;6.05;;;7.20;78.10;;;;;;5041059;28;20029;-61
2021/03/19 07:23:10;;;;;;;7.75;6.72;;;7.20;77.90;;;;;;5033810;28;20052;-62
2021/03/19 07:26:00;;;;;;;8.88;7.07;;;7.30;78.00;;;;;;5009460;28;20124;-62
2021/03/19 07:28:36;;;;;;;8.95;6.97;;;7.30;77.80;;;;;;5022165;28;20049;-61
2021/03/19 07:31:26;;;;;;;8.95;7.28;;;7.40;77.70;;;;;;5032535;28;20100;-62
2021/03/19 07:34:14;;;;;;;8.57;6.57;;;7.50;77.50;;;;;;5030247;28;20064;-62
2021/03/19 07:36:59;;;;;;;9.02;6.70;;;7.50;77.60;;;;;;5036040;28;20060;-61
2021/03/19 07:39:55;;;;;;;8.52;6.93;;;7.50;78.00;;;;;;5033052;28;20036;-62
2021/03/19 07:42:52;;;;;;;8.52;6.85;;;7.60;77.20;;;;;;5031839;28;20039;-62
2021/03/19 07:45:45;;;;;;;9.30;7.25;;;7.60;77.20;;;;;;5032425;28;20024;-62
2021/03/19 07:48:34;;;;;;;8.80;6.75;;;7.60;76.90;;;;;;5034976;28;20072;-61
2021/03/19 07:51:08;;;;;;;8.75;6.10;;;7.60;76.80;;;;;;5029577;28;20021;-61
2021/03/19 07:53:58;;;;;;;10.38;7.15;;;7.60;76.80;;;;;;5037454;28;20056;-61
2021/03/19 07:56:49;;;;;;;8.88;6.57;;;7.70;76.50;;;;;;5037670;28;20057;-62
2021/03/19 07:59:38;;;;;;;8.55;6.40;;;7.70;76.30;;;;;;5032680;28;20112;-62
2021/03/19 08:02:45;;;;;;;9.55;7.65;;;7.70;76.50;;;;;;5032459;28;20056;-62
2021/03/19 08:05:52;;;;;;;9.32;6.85;;;7.60;76.90;;;;;;5031460;28;20116;-62
2021/03/19 08:08:39;;;;;;;8.98;6.82;;;7.60;76.20;;;;;;4955837;28;20125;-62
2021/03/19 08:11:13;;;;;;;11.35;7.00;;;7.60;76.20;;;;;;5029976;28;20087;-62
2021/03/19 08:13:47;;;;;;;9.30;7.20;;;7.60;76.40;;;;;;5032295;28;20030;-62
2021/03/19 08:16:31;;;;;;;9.15;7.85;;;7.60;76.40;;;;;;5028864;28;20073;-62
2021/03/19 08:19:26;;;;;;;8.93;7.03;;;7.70;76.50;;;;;;5032478;28;20033;-62
2021/03/19 08:22:21;;;;;;;9.60;7.63;;;7.70;76.50;;;;;;5018823;28;20075;-62
2021/03/19 08:24:58;;;;;;;10.18;7.38;;;7.80;76.40;;;;;;5036381;28;20116;-61
2021/03/19 08:27:41;;;;;;;9.30;7.30;;;7.80;76.40;;;;;;5034756;28;20048;-62
2021/03/19 08:30:19;;;;;;;8.65;7.22;;;7.90;76.30;;;;;;5036278;28;20025;-62
2021/03/19 08:33:07;;;;;;;8.25;6.95;;;7.90;76.10;;;;;;5030117;28;20034;-62
2021/03/19 08:35:47;;;;;;;9.82;7.47;;;8.00;75.80;;;;;;5029928;28;21154;-62
2021/03/19 08:38:33;;;;;;;9.32;7.47;;;8.00;75.80;;;;;;5028786;28;20033;-62
2021/03/19 08:41:01;;;;;;;11.98;7.35;;;8.00;75.80;;;;;;5030814;28;20025;-62
2021/03/19 08:43:55;;;;;;;7.68;6.55;;;8.00;75.80;;;;;;5033027;28;20044;-62
2021/03/19 08:46:30;;;;;;;10.90;7.55;;;8.00;75.60;;;;;;5029878;28;20139;-62
2021/03/19 08:49:04;;;;;;;8.15;6.65;;;8.00;75.80;;;;;;5031275;28;20060;-62
2021/03/19 08:51:30;;;;;;;9.85;6.90;;;8.10;75.70;;;;;;5027766;28;20028;-62
2021/03/19 08:54:14;;;;;;;8.63;6.90;;;8.10;75.70;;;;;;5028048;28;20029;-62
2021/03/19 08:56:49;;;;;;;7.70;5.72;;;8.10;75.50;;;;;;5031246;28;20543;-62
2021/03/19 08:59:33;;;;;;;8.98;6.63;;;8.20;75.60;;;;;;5035243;28;20151;-62
2021/03/19 09:02:01;;;;;;;11.02;7.10;;;8.20;75.50;;;;;;5031519;28;22085;-62
2021/03/19 09:04:51;;;;;;;9.00;6.38;;;8.20;75.60;;;;;;5030770;28;20072;-62
2021/03/19 09:07:53;;;;;;;7.72;6.10;;;8.30;75.30;;;;;;5030030;28;20037;-62
2021/03/19 09:10:18;;;;;;;7.60;6.03;;;8.40;75.30;;;;;;5026414;28;21835;-62
2021/03/19 09:12:56;;;;;;;9.02;6.55;;;8.40;75.30;;;;;;5032819;28;20480;-61
2021/03/19 09:15:22;;;;;;;7.18;5.88;;;8.40;75.20;;;;;;5036501;28;20423;-62
2021/03/19 09:17:58;;;;;;;8.43;6.65;;;8.40;75.00;;;;;;5036163;28;20037;-62
2021/03/19 09:20:39;;;;;;;9.45;6.72;;;8.40;74.80;;;;;;5029907;28;20114;-62
2021/03/19 09:23:05;;;;;;;8.70;6.43;;;8.40;75.30;;;;;;5031317;28;20036;-62
2021/03/19 09:25:41;;;;;;;8.65;5.88;;;8.40;74.70;;;;;;5031971;28;20029;-62
2021/03/19 09:28:24;;;;;;;8.10;6.28;;;8.40;74.80;;;;;;5032947;28;20050;-62
2021/03/19 09:31:07;;;;;;;7.15;5.85;;;8.40;74.50;;;;;;5031822;28;20037;-62
2021/03/19 09:33:45;;;;;;;6.63;5.38;;;8.40;74.70;;;;;;5031473;28;20059;-62
2021/03/19 09:36:48;;;;;;;9.20;6.28;;;8.50;74.60;;;;;;5030189;28;20107;-62
2021/03/19 09:39:48;;;;;;;9.20;6.43;;;8.50;74.40;;;;;;5028143;28;20029;-62
2021/03/19 09:42:20;;;;;;;7.63;6.30;;;8.60;74.40;;;;;;5029340;28;20041;-62
2021/03/19 09:45:02;;;;;;;;;;;8.60;74.20;;;;;;5028120;28;20032;-62
2021/03/19 09:47:59;;;;;;;9.05;6.20;;;8.50;73.90;;;;;;5032876;28;19927;-60
2021/03/19 09:50:31;;;;;;;8.75;6.25;;;8.60;74.20;;;;;;5031345;28;20056;-61
2021/03/19 09:53:01;;;;;;;8.20;6.03;;;8.60;74.30;;;;;;5030589;28;20029;-62
2021/03/19 09:55:38;;;;;;;8.43;5.82;;;8.70;74.00;;;;;;5028344;28;20111;-62
2021/03/19 09:58:30;;;;;;;8.98;6.63;;;8.80;73.70;;;;;;5028623;28;20417;-62
2021/03/19 10:01:30;;;;;;;8.05;6.68;;;8.80;73.50;;;;;;5031879;28;20212;-62
2021/03/19 10:04:06;;;;;;;10.75;6.35;;;8.90;73.50;;;;;;5012303;28;20025;-62
2021/03/19 10:06:35;;;;;;;7.93;5.97;;;8.90;73.40;;;;;;5029178;28;20108;-62
2021/03/19 10:09:11;;;;;;;9.05;6.40;;;8.90;73.30;;;;;;5027819;28;20033;-62
2021/03/19 10:11:50;;;;;;;8.38;6.10;;;9.00;72.90;;;;;;5035328;28;20039;-62
2021/03/19 10:14:27;;;;;;;8.80;6.18;;;9.00;72.80;;;;;;5032413;28;20021;-62
2021/03/19 10:17:24;;;;;;;7.90;6.55;;;9.10;72.80;;;;;;5033158;28;20848;-62
2021/03/19 10:20:12;;;;;;;8.80;6.22;;;9.10;72.20;;;;;;5040047;28;20082;-62
2021/03/19 10:23:06;;;;;;;7.97;6.43;;;9.10;71.80;;;;;;5030699;28;20041;-62
2021/03/19 10:25:35;;;;;;;8.35;6.47;;;9.10;72.00;;;;;;5020579;28;20136;-62
2021/03/19 10:28:23;;;;;;;8.88;6.65;;;9.10;72.00;;;;;;5030319;28;20032;-60
2021/03/19 10:31:07;;;;;;;8.20;6.35;;;9.10;72.00;;;;;;5027979;28;20116;-62
2021/03/19 10:33:35;;;;;;;7.82;5.80;;;9.10;72.00;;;;;;5030771;28;20029;-62
2021/03/19 10:36:07;;;;;;;6.57;5.47;;;9.10;71.70;;;;;;5030746;28;20163;-62
2021/03/19 10:38:46;;;;;;;8.23;5.97;;;9.10;71.40;;;;;;5029701;28;20037;-62
2021/03/19 10:41:23;;;;;;;8.63;5.72;;;9.10;71.20;;;;;;5022360;28;20095;-62
2021/03/19 10:43:56;;;;;;;9.95;6.40;;;9.10;71.40;;;;;;5024880;28;20037;-62
2021/03/19 10:46:43;;;;;;;9.15;6.43;;;9.10;71.20;;;;;;5023259;28;20032;-62
2021/03/19 10:49:24;;;;;;;7.78;5.65;;;9.10;70.80;;;;;;5024489;28;20044;-62
2021/03/19 10:51:55;;;;;;;8.40;6.75;;;9.10;70.60;;;;;;5031358;28;20626;-62
2021/03/19 10:54:27;;;;;;;6.93;5.72;;;9.10;70.60;;;;;;5026074;28;20028;-62
2021/03/19 10:56:57;;;;;;;8.68;5.88;;;9.20;70.60;;;;;;5023229;28;20032;-62
2021/03/19 10:59:33;;;;;;;6.55;5.75;;;9.20;70.40;;;;;;5022463;28;20029;-62
2021/03/19 11:02:19;;;;;;;8.32;5.93;;;9.30;70.00;;;;;;5023220;28;20085;-62
2021/03/19 11:05:11;;;;;;;7.40;6.15;;;9.30;69.70;;;;;;5029016;28;20484;-62
2021/03/19 11:07:42;;;;;;;7.30;5.88;;;9.30;69.50;;;;;;5021927;28;20180;-61
2021/03/19 11:10:16;;;;;;;11.23;8.68;;;9.30;69.40;;;;;;5023130;28;20026;-62
2021/03/19 11:12:56;;;;;;;9.65;6.85;;;9.30;69.40;;;;;;5026915;28;20692;-62
2021/03/19 11:15:39;;;;;;;7.50;5.78;;;9.40;69.30;;;;;;5031449;28;20285;-62
2021/03/19 11:18:21;;;;;;;6.43;5.72;;;9.40;69.20;;;;;;5031043;28;20035;-62
2021/03/19 11:20:54;;;;;;;9.57;6.38;;;9.40;68.70;;;;;;5029388;28;20476;-61
2021/03/19 11:23:45;;;;;;;7.15;5.18;;;9.40;68.60;;;;;;5031660;28;20032;-62
2021/03/19 11:26:34;;;;;;;8.77;6.07;;;9.30;68.60;;;;;;5028541;28;20048;-64
2021/03/19 11:29:18;;;;;;;6.88;5.05;;;9.40;68.30;;;;;;5027297;28;20041;-62
2021/03/19 11:32:13;;;;;;;8.13;5.18;;;9.30;68.30;;;;;;5026861;28;20907;-63
2021/03/19 11:34:48;;;;;;;12.15;4.57;;;9.30;68.20;;;;;;5019637;28;20033;-62
2021/03/19 11:37:21;;;;;;;7.95;4.63;;;9.20;68.10;;;;;;5033268;28;20040;-62
2021/03/19 11:39:49;;;;;;;6.72;4.72;;;9.20;67.90;;;;;;5031833;28;20032;-62
2021/03/19 11:42:17;;;;;;;7.45;5.35;;;9.10;67.90;;;;;;5037952;28;21956;-62
2021/03/19 11:44:47;;;;;;;8.55;5.30;;;9.00;67.80;;;;;;5033159;28;20508;-62
2021/03/19 11:47:28;;;;;;;7.72;5.40;;;9.00;68.20;;;;;;5035991;28;20033;-62
2021/03/19 11:50:22;;;;;;;7.20;5.88;;;9.00;68.10;;;;;;5035799;28;20029;-62
2021/03/19 11:52:51;;;;;;;7.70;6.18;;;9.00;68.30;;;;;;5030381;28;20420;-62
2021/03/19 11:55:35;;;;;;;7.50;6.10;;;8.90;68.50;;;;;;5033859;28;20032;-62
2021/03/19 11:58:01;;;;;;;9.88;6.55;;;8.90;68.90;;;;;;5033718;28;20809;-62
2021/03/19 12:00:30;;;;;;;9.00;7.45;;;8.80;69.10;;;;;;5034056;28;20037;-62
2021/03/19 12:03:02;;;;;;;8.65;7.47;;;8.80;69.60;;;;;;5035615;28;20049;-62
2021/03/19 12:05:30;;;;;;;10.98;7.32;;;8.70;68.90;;;;;;5038006;28;20283;-62
2021/03/19 12:07:56;;;;;;;7.70;6.85;;;8.50;69.10;;;;;;5036924;28;20053;-64
2021/03/19 12:10:28;;;;;;;9.82;6.75;;;8.50;69.10;;;;;;5035780;28;20040;-62
2021/03/19 12:12:54;;;;;;;;;;;8.30;69.30;;;;;;5037375;28;20026;-60
2021/03/19 12:15:20;;;;;;;8.93;6.25;;;8.20;69.60;;;;;;5034775;28;19990;-62
2021/03/19 12:17:46;;;;;;;8.82;6.35;;;8.10;69.80;;;;;;5035995;28;20068;-63
2021/03/19 12:20:14;;;;;;;9.30;6.60;;;8.00;70.20;;;;;;5037158;28;20033;-63
2021/03/19 12:22:41;;;;;;;9.65;7.55;;;8.00;70.50;;;;;;5043554;28;20033;-63
2021/03/19 12:25:28;;;;;;;8.68;7.28;;;8.00;70.80;;;;;;5036526;28;20069;-63
2021/03/19 12:27:54;;;;;;;11.25;7.60;;;8.00;71.00;;;;;;5036131;28;20045;-63
2021/03/19 12:30:21;;;;;;;14.23;8.20;;;7.90;71.40;;;;;;5039189;28;20424;-63
2021/03/19 12:32:47;;;;;;;10.82;8.23;;;8.00;71.90;;;;;;5034484;28;20115;-63
2021/03/19 12:35:14;;;;;;;11.60;7.85;;;7.90;71.80;;;;;;5036447;28;20037;-63
2021/03/19 12:37:39;;;;;;;9.60;7.28;;;7.90;71.40;;;;;;5040952;28;20037;-63
2021/03/19 12:40:07;;;;;;;10.98;7.32;;;7.80;71.50;;;;;;5048749;28;20078;-65
2021/03/19 12:42:33;;;;;;;9.40;7.10;;;7.70;71.80;;;;;;5040507;28;20094;-63
2021/03/19 12:44:59;;;;;;;10.70;7.85;;;7.70;72.10;;;;;;5042711;28;20033;-63
2021/03/19 12:47:24;;;;;;;9.32;7.00;;;7.60;72.40;;;;;;5039609;28;20032;-63
2021/03/19 12:49:50;;;;;;;10.55;7.35;;;7.70;72.50;;;;;;5032632;28;20046;-63
2021/03/19 12:52:16;;;;;;;8.80;6.95;;;7.60;72.40;;;;;;5018121;28;20033;-63
2021/03/19 12:54:42;;;;;;;10.23;7.05;;;7.70;72.50;;;;;;5031081;28;20068;-63
2021/03/19 12:57:07;;;;;;;10.60;6.88;;;7.70;72.60;;;;;;5030071;28;20037;-63
2021/03/19 12:59:33;;;;;;;9.85;7.22;;;7.70;72.50;;;;;;5029708;28;20065;-63
2021/03/19 13:01:59;;;;;;;10.10;6.45;;;7.70;72.20;;;;;;5051698;28;20089;-64
2021/03/19 13:04:27;;;;;;;9.27;6.35;;;7.80;72.30;;;;;;5037417;28;20488;-63
2021/03/19 13:06:53;;;;;;;9.05;6.60;;;7.80;72.30;;;;;;5031368;28;20025;-64
2021/03/19 13:09:18;;;;;;;8.85;6.80;;;7.90;72.30;;;;;;5031758;28;20039;-63
2021/03/19 13:11:44;;;;;;;9.60;6.68;;;7.90;72.40;;;;;;5030791;28;20056;-63
2021/03/19 13:14:10;;;;;;;8.30;6.88;;;7.90;72.20;;;;;;5031395;28;20365;-63
2021/03/19 13:16:36;;;;;;;7.57;6.45;;;8.00;72.30;;;;;;5031875;28;20494;-63
2021/03/19 13:19:02;;;;;;;8.90;6.90;;;8.00;72.10;;;;;;5037317;28;20178;-63
2021/03/19 13:21:29;;;;;;;8.43;6.47;;;8.00;72.20;;;;;;5029692;28;20116;-63
2021/03/19 13:23:55;;;;;;;10.20;8.13;;;8.00;72.50;;;;;;5031194;28;20028;-63
2021/03/19 13:26:20;;;;;;;10.30;7.80;;;8.00;72.80;;;;;;5029106;28;20456;-63
2021/03/19 13:28:46;;;;;;;10.85;7.65;;;8.10;72.70;;;;;;5032114;28;20520;-63
2021/03/19 13:31:12;;;;;;;10.27;8.52;;;8.10;72.60;;;;;;5032017;28;20029;-62
2021/03/19 13:33:37;;;;;;;12.23;9.13;;;8.20;72.80;;;;;;5036537;28;20393;-63
2021/03/19 13:36:05;;;;;;;9.23;7.45;;;8.20;72.50;;;;;;5024729;28;20814;-63